sensor_id;sensor_type;location;lat;lon;timestamp;pressure;altitude;pressure_sealevel;temperature;humidity
80294;BME280;69594;43.516;1.498;2023-04-24T00:00:45;99723.75;;;12.85;74.58
80294;BME280;69594;43.516;1.498;2023-04-24T00:03:11;99722.72;;;12.94;74.36
80294;BME280;69594;43.516;1.498;2023-04-24T00:05:38;99724.19;;;13.04;74.04
80294;BME280;69594;43.516;1.498;2023-04-24T00:08:05;99720.03;;;13.18;73.92
80294;BME280;69594;43.516;1.498;2023-04-24T00:10:31;99717.88;;;13.22;73.67
80294;BME280;69594;43.516;1.498;2023-04-24T00:12:56;99726.47;;;13.15;73.49
80294;BME280;69594;43.516;1.498;2023-04-24T00:15:22;99728.44;;;13.13;73.55
80294;BME280;69594;43.516;1.498;2023-04-24T00:17:47;99717.69;;;13.23;72.97
80294;BME280;69594;43.516;1.498;2023-04-24T00:20:13;99715.53;;;13.27;72.75
80294;BME280;69594;43.516;1.498;2023-04-24T00:22:40;99723.78;;;13.24;72.78
80294;BME280;69594;43.516;1.498;2023-04-24T00:25:05;99723.44;;;13.27;72.65
80294;BME280;69594;43.516;1.498;2023-04-24T00:27:32;99726.34;;;13.40;72.58
80294;BME280;69594;43.516;1.498;2023-04-24T00:29:57;99720.03;;;13.49;72.53
80294;BME280;69594;43.516;1.498;2023-04-24T00:32:22;99718.16;;;13.57;72.34
80294;BME280;69594;43.516;1.498;2023-04-24T00:34:48;99714.75;;;13.57;72.35
80294;BME280;69594;43.516;1.498;2023-04-24T00:37:13;99726.28;;;13.56;72.31
80294;BME280;69594;43.516;1.498;2023-04-24T00:39:39;99723.81;;;13.54;72.11
80294;BME280;69594;43.516;1.498;2023-04-24T00:42:04;99724.19;;;13.43;72.09
80294;BME280;69594;43.516;1.498;2023-04-24T00:44:35;99720.78;;;13.35;72.34
80294;BME280;69594;43.516;1.498;2023-04-24T00:47:00;99727.25;;;13.24;72.47
80294;BME280;69594;43.516;1.498;2023-04-24T00:49:26;99729.44;;;13.12;72.79
80294;BME280;69594;43.516;1.498;2023-04-24T00:51:52;99729.75;;;13.09;73.06
80294;BME280;69594;43.516;1.498;2023-04-24T00:54:19;99729.75;;;13.01;73.12
80294;BME280;69594;43.516;1.498;2023-04-24T00:56:45;99723.38;;;12.96;73.04
80294;BME280;69594;43.516;1.498;2023-04-24T00:59:12;99725.88;;;12.89;73.09
80294;BME280;69594;43.516;1.498;2023-04-24T01:01:38;99737.72;;;12.85;73.02
80294;BME280;69594;43.516;1.498;2023-04-24T01:04:07;99728.69;;;12.80;73.00
80294;BME280;69594;43.516;1.498;2023-04-24T01:06:33;99731.66;;;12.76;72.98
80294;BME280;69594;43.516;1.498;2023-04-24T01:09:00;99730.19;;;12.66;73.58
80294;BME280;69594;43.516;1.498;2023-04-24T01:11:26;99723.78;;;12.68;73.04
80294;BME280;69594;43.516;1.498;2023-04-24T01:13:52;99718.22;;;12.63;73.46
80294;BME280;69594;43.516;1.498;2023-04-24T01:16:18;99721.00;;;12.62;72.98
80294;BME280;69594;43.516;1.498;2023-04-24T01:18:45;99719.34;;;12.61;73.09
80294;BME280;69594;43.516;1.498;2023-04-24T01:21:13;99716.25;;;12.57;73.29
80294;BME280;69594;43.516;1.498;2023-04-24T01:23:40;99719.34;;;12.61;73.18
80294;BME280;69594;43.516;1.498;2023-04-24T01:26:06;99719.66;;;12.66;73.04
80294;BME280;69594;43.516;1.498;2023-04-24T01:28:31;99726.88;;;12.80;73.02
80294;BME280;69594;43.516;1.498;2023-04-24T01:30:57;99709.41;;;12.95;72.21
80294;BME280;69594;43.516;1.498;2023-04-24T01:33:22;99703.59;;;13.08;71.88
80294;BME280;69594;43.516;1.498;2023-04-24T01:35:48;99707.03;;;13.16;71.67
80294;BME280;69594;43.516;1.498;2023-04-24T01:38:14;99706.34;;;13.23;71.46
80294;BME280;69594;43.516;1.498;2023-04-24T01:40:40;99706.66;;;13.28;71.40
80294;BME280;69594;43.516;1.498;2023-04-24T01:43:05;99712.56;;;13.30;71.23
80294;BME280;69594;43.516;1.498;2023-04-24T01:45:31;99715.38;;;13.28;71.67
80294;BME280;69594;43.516;1.498;2023-04-24T01:47:57;99716.84;;;13.31;71.39
80294;BME280;69594;43.516;1.498;2023-04-24T01:50:22;99713.56;;;13.29;71.18
80294;BME280;69594;43.516;1.498;2023-04-24T01:52:48;99712.44;;;13.23;71.33
80294;BME280;69594;43.516;1.498;2023-04-24T01:55:13;99718.75;;;13.14;71.43
80294;BME280;69594;43.516;1.498;2023-04-24T01:57:39;99720.56;;;13.05;71.77
80294;BME280;69594;43.516;1.498;2023-04-24T02:00:05;99715.66;;;12.94;71.82
80294;BME280;69594;43.516;1.498;2023-04-24T02:02:32;99718.50;;;12.85;72.20
80294;BME280;69594;43.516;1.498;2023-04-24T02:04:57;99716.03;;;12.75;72.49
80294;BME280;69594;43.516;1.498;2023-04-24T02:07:23;99717.03;;;12.66;72.45
80294;BME280;69594;43.516;1.498;2023-04-24T02:09:48;99715.41;;;12.57;72.84
80294;BME280;69594;43.516;1.498;2023-04-24T02:12:15;99719.69;;;12.50;72.99
80294;BME280;69594;43.516;1.498;2023-04-24T02:14:40;99723.16;;;12.42;73.08
80294;BME280;69594;43.516;1.498;2023-04-24T02:17:07;99723.00;;;12.35;73.27
80294;BME280;69594;43.516;1.498;2023-04-24T02:19:33;99731.56;;;12.29;73.27
80294;BME280;69594;43.516;1.498;2023-04-24T02:21:58;99724.31;;;12.23;73.50
80294;BME280;69594;43.516;1.498;2023-04-24T02:24:24;99726.94;;;12.23;73.53
80294;BME280;69594;43.516;1.498;2023-04-24T02:26:50;99727.97;;;12.22;73.71
80294;BME280;69594;43.516;1.498;2023-04-24T02:29:15;99718.06;;;12.24;73.54
80294;BME280;69594;43.516;1.498;2023-04-24T02:31:41;99728.09;;;12.29;73.55
80294;BME280;69594;43.516;1.498;2023-04-24T02:34:06;99722.34;;;12.33;73.25
80294;BME280;69594;43.516;1.498;2023-04-24T02:36:32;99729.91;;;12.37;73.42
80294;BME280;69594;43.516;1.498;2023-04-24T02:38:57;99722.34;;;12.42;73.30
80294;BME280;69594;43.516;1.498;2023-04-24T02:41:22;99715.75;;;12.46;73.22
80294;BME280;69594;43.516;1.498;2023-04-24T02:43:48;99717.56;;;12.45;72.91
80294;BME280;69594;43.516;1.498;2023-04-24T02:46:13;99719.03;;;12.40;73.13
80294;BME280;69594;43.516;1.498;2023-04-24T02:48:39;99711.66;;;12.43;72.97
80294;BME280;69594;43.516;1.498;2023-04-24T02:51:04;99717.41;;;12.47;73.09
80294;BME280;69594;43.516;1.498;2023-04-24T02:53:30;99722.31;;;12.50;72.93
80294;BME280;69594;43.516;1.498;2023-04-24T02:55:56;99717.69;;;12.60;72.82
80294;BME280;69594;43.516;1.498;2023-04-24T02:58:21;99720.34;;;12.68;72.65
80294;BME280;69594;43.516;1.498;2023-04-24T03:00:47;99724.56;;;12.77;72.37
80294;BME280;69594;43.516;1.498;2023-04-24T03:03:14;99726.53;;;12.83;72.17
80294;BME280;69594;43.516;1.498;2023-04-24T03:05:40;99727.16;;;12.93;72.05
80294;BME280;69594;43.516;1.498;2023-04-24T03:08:05;99731.56;;;13.01;71.65
80294;BME280;69594;43.516;1.498;2023-04-24T03:10:31;99735.03;;;13.01;71.64
80294;BME280;69594;43.516;1.498;2023-04-24T03:12:57;99738.69;;;13.00;71.65
80294;BME280;69594;43.516;1.498;2023-04-24T03:15:22;99737.50;;;13.03;71.71
80294;BME280;69594;43.516;1.498;2023-04-24T03:17:48;99741.63;;;13.05;71.56
80294;BME280;69594;43.516;1.498;2023-04-24T03:20:13;99731.09;;;13.05;71.77
80294;BME280;69594;43.516;1.498;2023-04-24T03:22:39;99740.63;;;13.14;71.39
80294;BME280;69594;43.516;1.498;2023-04-24T03:25:05;99726.59;;;13.22;71.40
80294;BME280;69594;43.516;1.498;2023-04-24T03:27:31;99718.16;;;13.27;70.95
80294;BME280;69594;43.516;1.498;2023-04-24T03:29:56;99730.34;;;13.28;71.17
80294;BME280;69594;43.516;1.498;2023-04-24T03:32:22;99734.47;;;13.30;71.08
80294;BME280;69594;43.516;1.498;2023-04-24T03:34:50;99728.03;;;13.33;70.83
80294;BME280;69594;43.516;1.498;2023-04-24T03:37:16;99722.59;;;13.34;70.88
80294;BME280;69594;43.516;1.498;2023-04-24T03:39:42;99724.09;;;13.29;70.97
80294;BME280;69594;43.516;1.498;2023-04-24T03:42:08;99720.69;;;13.20;71.20
80294;BME280;69594;43.516;1.498;2023-04-24T03:44:34;99717.25;;;13.11;71.27
80294;BME280;69594;43.516;1.498;2023-04-24T03:46:59;99718.28;;;12.94;71.72
80294;BME280;69594;43.516;1.498;2023-04-24T03:49:25;99720.81;;;12.80;71.75
80294;BME280;69594;43.516;1.498;2023-04-24T03:51:50;99711.44;;;12.69;72.03
80294;BME280;69594;43.516;1.498;2023-04-24T03:54:17;99714.56;;;12.64;72.16
80294;BME280;69594;43.516;1.498;2023-04-24T03:56:43;99716.41;;;12.64;72.22
80294;BME280;69594;43.516;1.498;2023-04-24T03:59:09;99712.25;;;12.69;71.99
80294;BME280;69594;43.516;1.498;2023-04-24T04:01:35;99719.97;;;12.71;72.16
80294;BME280;69594;43.516;1.498;2023-04-24T04:04:04;99724.94;;;12.74;72.35
80294;BME280;69594;43.516;1.498;2023-04-24T04:06:29;99718.34;;;12.78;71.86
80294;BME280;69594;43.516;1.498;2023-04-24T04:08:56;99728.00;;;12.86;72.11
80294;BME280;69594;43.516;1.498;2023-04-24T04:11:21;99725.53;;;12.92;71.59
80294;BME280;69594;43.516;1.498;2023-04-24T04:13:47;99725.38;;;12.86;72.08
80294;BME280;69594;43.516;1.498;2023-04-24T04:16:13;99730.47;;;12.87;71.91
80294;BME280;69594;43.516;1.498;2023-04-24T04:18:38;99720.28;;;12.84;72.18
80294;BME280;69594;43.516;1.498;2023-04-24T04:21:04;99730.47;;;12.95;71.54
80294;BME280;69594;43.516;1.498;2023-04-24T04:23:30;99726.50;;;12.99;71.62
80294;BME280;69594;43.516;1.498;2023-04-24T04:25:55;99729.34;;;12.90;72.17
80294;BME280;69594;43.516;1.498;2023-04-24T04:28:20;99719.13;;;12.95;71.99
80294;BME280;69594;43.516;1.498;2023-04-24T04:30:46;99724.53;;;12.93;72.01
80294;BME280;69594;43.516;1.498;2023-04-24T04:33:12;99728.16;;;13.00;71.56
80294;BME280;69594;43.516;1.498;2023-04-24T04:35:38;99731.09;;;12.97;72.02
80294;BME280;69594;43.516;1.498;2023-04-24T04:38:03;99728.16;;;12.92;71.77
80294;BME280;69594;43.516;1.498;2023-04-24T04:40:29;99734.75;;;12.88;72.14
80294;BME280;69594;43.516;1.498;2023-04-24T04:42:55;99741.19;;;12.77;72.43
80294;BME280;69594;43.516;1.498;2023-04-24T04:45:21;99741.38;;;12.68;72.51
80294;BME280;69594;43.516;1.498;2023-04-24T04:47:46;99744.66;;;12.70;72.66
80294;BME280;69594;43.516;1.498;2023-04-24T04:50:12;99746.97;;;12.73;72.55
80294;BME280;69594;43.516;1.498;2023-04-24T04:52:38;99744.34;;;12.65;72.63
80294;BME280;69594;43.516;1.498;2023-04-24T04:55:05;99748.94;;;12.71;72.80
80294;BME280;69594;43.516;1.498;2023-04-24T04:57:32;99749.25;;;12.84;72.16
80294;BME280;69594;43.516;1.498;2023-04-24T04:59:58;99753.19;;;12.88;72.25
80294;BME280;69594;43.516;1.498;2023-04-24T05:02:23;99746.94;;;12.89;72.45
80294;BME280;69594;43.516;1.498;2023-04-24T05:04:48;99755.66;;;12.90;72.33
80294;BME280;69594;43.516;1.498;2023-04-24T05:07:14;99764.69;;;12.95;72.42
80294;BME280;69594;43.516;1.498;2023-04-24T05:09:39;99768.28;;;13.02;71.82
80294;BME280;69594;43.516;1.498;2023-04-24T05:12:05;99768.75;;;13.06;71.88
80294;BME280;69594;43.516;1.498;2023-04-24T05:14:30;99771.56;;;13.12;71.56
80294;BME280;69594;43.516;1.498;2023-04-24T05:16:56;99774.88;;;13.14;71.60
80294;BME280;69594;43.516;1.498;2023-04-24T05:19:21;99760.72;;;13.15;71.56
80294;BME280;69594;43.516;1.498;2023-04-24T05:21:47;99775.19;;;13.19;71.61
80294;BME280;69594;43.516;1.498;2023-04-24T05:24:12;99780.13;;;13.14;72.04
80294;BME280;69594;43.516;1.498;2023-04-24T05:26:37;99780.09;;;13.23;71.72
80294;BME280;69594;43.516;1.498;2023-04-24T05:29:03;99777.28;;;13.24;72.08
80294;BME280;69594;43.516;1.498;2023-04-24T05:31:29;99775.75;;;13.38;71.71
80294;BME280;69594;43.516;1.498;2023-04-24T05:33:54;99768.47;;;13.48;71.30
80294;BME280;69594;43.516;1.498;2023-04-24T05:36:22;99786.59;;;13.43;71.72
80294;BME280;69594;43.516;1.498;2023-04-24T05:38:47;99785.44;;;13.45;71.71
80294;BME280;69594;43.516;1.498;2023-04-24T05:41:13;99787.34;;;13.59;71.29
80294;BME280;69594;43.516;1.498;2023-04-24T05:43:38;99784.81;;;13.74;71.33
80294;BME280;69594;43.516;1.498;2023-04-24T05:46:04;99791.38;;;13.78;71.12
80294;BME280;69594;43.516;1.498;2023-04-24T05:48:29;99798.25;;;13.87;71.11
80294;BME280;69594;43.516;1.498;2023-04-24T05:50:55;99795.25;;;13.90;70.88
80294;BME280;69594;43.516;1.498;2023-04-24T05:53:20;99796.13;;;14.14;70.26
80294;BME280;69594;43.516;1.498;2023-04-24T05:55:47;99793.66;;;14.12;70.29
80294;BME280;69594;43.516;1.498;2023-04-24T05:58:13;99790.53;;;14.31;69.79
80294;BME280;69594;43.516;1.498;2023-04-24T06:00:39;99796.53;;;14.48;69.42
80294;BME280;69594;43.516;1.498;2023-04-24T06:03:07;99801.66;;;14.50;69.68
80294;BME280;69594;43.516;1.498;2023-04-24T06:05:33;99808.59;;;14.65;69.02
80294;BME280;69594;43.516;1.498;2023-04-24T06:07:58;99804.63;;;14.84;68.38
80294;BME280;69594;43.516;1.498;2023-04-24T06:10:24;99803.19;;;14.96;68.11
80294;BME280;69594;43.516;1.498;2023-04-24T06:12:49;99813.13;;;15.09;68.06
80294;BME280;69594;43.516;1.498;2023-04-24T06:15:15;99809.84;;;15.07;68.10
80294;BME280;69594;43.516;1.498;2023-04-24T06:17:40;99811.47;;;15.08;68.06
80294;BME280;69594;43.516;1.498;2023-04-24T06:20:06;99812.22;;;15.02;68.08
80294;BME280;69594;43.516;1.498;2023-04-24T06:22:33;99820.25;;;15.23;67.57
80294;BME280;69594;43.516;1.498;2023-04-24T06:24:59;99831.72;;;15.30;67.31
80294;BME280;69594;43.516;1.498;2023-04-24T06:27:24;99835.91;;;15.39;67.30
80294;BME280;69594;43.516;1.498;2023-04-24T06:29:51;99838.94;;;15.65;66.76
80294;BME280;69594;43.516;1.498;2023-04-24T06:32:21;99836.69;;;15.98;65.94
80294;BME280;69594;43.516;1.498;2023-04-24T06:34:47;99836.47;;;16.14;65.89
80294;BME280;69594;43.516;1.498;2023-04-24T06:37:12;99842.28;;;16.46;65.03
80294;BME280;69594;43.516;1.498;2023-04-24T06:39:39;99840.84;;;16.65;64.71
80294;BME280;69594;43.516;1.498;2023-04-24T06:42:05;99838.81;;;16.88;64.24
80294;BME280;69594;43.516;1.498;2023-04-24T06:44:30;99845.19;;;17.00;63.97
80294;BME280;69594;43.516;1.498;2023-04-24T06:46:56;99852.88;;;17.16;63.48
80294;BME280;69594;43.516;1.498;2023-04-24T06:49:21;99854.09;;;17.20;63.50
80294;BME280;69594;43.516;1.498;2023-04-24T06:51:47;99849.88;;;17.26;63.41
80294;BME280;69594;43.516;1.498;2023-04-24T06:54:12;99850.06;;;17.24;63.37
80294;BME280;69594;43.516;1.498;2023-04-24T06:56:38;99849.19;;;16.89;64.30
80294;BME280;69594;43.516;1.498;2023-04-24T06:59:03;99855.28;;;16.83;64.13
80294;BME280;69594;43.516;1.498;2023-04-24T07:01:28;99851.59;;;16.84;64.00
80294;BME280;69594;43.516;1.498;2023-04-24T07:03:54;99863.09;;;16.70;63.91
80294;BME280;69594;43.516;1.498;2023-04-24T07:06:19;99863.28;;;16.47;64.35
80294;BME280;69594;43.516;1.498;2023-04-24T07:08:49;99861.75;;;16.38;64.65
80294;BME280;69594;43.516;1.498;2023-04-24T07:11:14;99868.19;;;16.50;64.48
80294;BME280;69594;43.516;1.498;2023-04-24T07:13:42;99864.56;;;16.58;64.16
80294;BME280;69594;43.516;1.498;2023-04-24T07:16:12;99871.22;;;16.69;64.24
80294;BME280;69594;43.516;1.498;2023-04-24T07:18:38;99865.50;;;16.65;63.72
80294;BME280;69594;43.516;1.498;2023-04-24T07:21:05;99865.38;;;16.52;64.27
80294;BME280;69594;43.516;1.498;2023-04-24T07:23:31;99868.56;;;16.90;63.55
80294;BME280;69594;43.516;1.498;2023-04-24T07:25:58;99865.75;;;17.19;62.48
80294;BME280;69594;43.516;1.498;2023-04-24T07:28:23;99872.13;;;17.31;62.78
80294;BME280;69594;43.516;1.498;2023-04-24T07:30:49;99866.31;;;17.15;63.04
80294;BME280;69594;43.516;1.498;2023-04-24T07:33:15;99869.53;;;17.10;63.07
80294;BME280;69594;43.516;1.498;2023-04-24T07:35:40;99869.75;;;17.09;62.84
80294;BME280;69594;43.516;1.498;2023-04-24T07:38:06;99875.47;;;17.47;62.04
80294;BME280;69594;43.516;1.498;2023-04-24T07:40:31;99869.41;;;17.53;61.80
80294;BME280;69594;43.516;1.498;2023-04-24T07:42:56;99871.44;;;17.85;61.32
80294;BME280;69594;43.516;1.498;2023-04-24T07:45:22;99878.72;;;17.35;61.75
80294;BME280;69594;43.516;1.498;2023-04-24T07:47:50;99878.28;;;17.04;62.75
80294;BME280;69594;43.516;1.498;2023-04-24T07:50:16;99882.31;;;16.36;64.83
80294;BME280;69594;43.516;1.498;2023-04-24T07:52:41;99888.94;;;16.47;64.20
80294;BME280;69594;43.516;1.498;2023-04-24T07:55:07;99885.63;;;16.81;62.80
80294;BME280;69594;43.516;1.498;2023-04-24T07:57:34;99883.41;;;17.40;61.63
80294;BME280;69594;43.516;1.498;2023-04-24T08:00:00;99889.09;;;18.99;58.24
80294;BME280;69594;43.516;1.498;2023-04-24T08:02:26;99883.53;;;19.47;57.27
80294;BME280;69594;43.516;1.498;2023-04-24T08:04:55;99874.34;;;20.01;55.67
80294;BME280;69594;43.516;1.498;2023-04-24T08:07:23;99875.66;;;20.29;55.27
80294;BME280;69594;43.516;1.498;2023-04-24T08:09:48;99871.72;;;21.19;53.26
80294;BME280;69594;43.516;1.498;2023-04-24T08:12:14;99876.94;;;22.65;50.87
80294;BME280;69594;43.516;1.498;2023-04-24T08:14:40;99880.03;;;25.75;45.87
80294;BME280;69594;43.516;1.498;2023-04-24T08:17:05;99879.41;;;28.44;41.97
80294;BME280;69594;43.516;1.498;2023-04-24T08:19:31;99880.75;;;29.07;40.67
80294;BME280;69594;43.516;1.498;2023-04-24T08:21:56;99876.16;;;29.17;40.26
80294;BME280;69594;43.516;1.498;2023-04-24T08:24:22;99884.25;;;28.42;40.36
80294;BME280;69594;43.516;1.498;2023-04-24T08:26:48;99883.00;;;27.03;42.82
80294;BME280;69594;43.516;1.498;2023-04-24T08:29:16;99909.13;;;26.00;44.61
80294;BME280;69594;43.516;1.498;2023-04-24T08:31:42;99874.75;;;24.30;46.86
80294;BME280;69594;43.516;1.498;2023-04-24T08:34:09;99887.94;;;22.45;49.58
80294;BME280;69594;43.516;1.498;2023-04-24T08:36:35;99883.53;;;21.30;51.16
80294;BME280;69594;43.516;1.498;2023-04-24T08:39:00;99881.22;;;20.59;52.45
80294;BME280;69594;43.516;1.498;2023-04-24T08:41:26;99887.47;;;21.03;51.76
80294;BME280;69594;43.516;1.498;2023-04-24T08:43:52;99875.09;;;21.88;49.93
80294;BME280;69594;43.516;1.498;2023-04-24T08:46:21;99886.06;;;23.92;45.90
80294;BME280;69594;43.516;1.498;2023-04-24T08:48:50;99871.97;;;25.75;42.48
80294;BME280;69594;43.516;1.498;2023-04-24T08:51:16;99870.16;;;27.15;40.39
80294;BME280;69594;43.516;1.498;2023-04-24T08:53:42;99862.16;;;25.26;43.87
80294;BME280;69594;43.516;1.498;2023-04-24T08:56:09;99863.09;;;25.97;42.26
80294;BME280;69594;43.516;1.498;2023-04-24T08:58:36;99875.06;;;25.62;42.65
80294;BME280;69594;43.516;1.498;2023-04-24T09:01:02;99870.00;;;25.11;43.13
80294;BME280;69594;43.516;1.498;2023-04-24T09:03:29;99871.44;;;23.83;45.86
80294;BME280;69594;43.516;1.498;2023-04-24T09:05:55;99878.16;;;22.69;47.29
80294;BME280;69594;43.516;1.498;2023-04-24T09:08:24;99878.16;;;21.73;48.57
80294;BME280;69594;43.516;1.498;2023-04-24T09:10:51;99870.81;;;21.69;48.55
80294;BME280;69594;43.516;1.498;2023-04-24T09:13:18;99878.13;;;22.28;47.49
80294;BME280;69594;43.516;1.498;2023-04-24T09:15:44;99872.00;;;22.39;47.87
80294;BME280;69594;43.516;1.498;2023-04-24T09:18:09;99873.28;;;22.36;48.17
80294;BME280;69594;43.516;1.498;2023-04-24T09:20:58;99878.34;;;22.26;46.62
80294;BME280;69594;43.516;1.498;2023-04-24T09:23:27;99867.25;;;22.82;47.67
80294;BME280;69594;43.516;1.498;2023-04-24T09:25:57;99869.28;;;23.57;45.55
80294;BME280;69594;43.516;1.498;2023-04-24T09:28:31;99857.25;;;23.71;44.91
80294;BME280;69594;43.516;1.498;2023-04-24T09:31:12;99866.97;;;23.89;44.54
80294;BME280;69594;43.516;1.498;2023-04-24T09:33:39;99868.97;;;23.93;46.76
80294;BME280;69594;43.516;1.498;2023-04-24T09:36:06;99861.81;;;24.39;45.48
80294;BME280;69594;43.516;1.498;2023-04-24T09:38:36;99854.56;;;24.39;43.49
80294;BME280;69594;43.516;1.498;2023-04-24T09:41:05;99854.16;;;23.91;42.97
80294;BME280;69594;43.516;1.498;2023-04-24T09:43:32;99861.34;;;23.62;45.31
80294;BME280;69594;43.516;1.498;2023-04-24T09:46:04;99867.53;;;23.04;44.30
80294;BME280;69594;43.516;1.498;2023-04-24T09:48:35;99861.94;;;23.41;43.90
80294;BME280;69594;43.516;1.498;2023-04-24T09:51:02;99861.16;;;23.80;44.57
80294;BME280;69594;43.516;1.498;2023-04-24T09:53:30;99858.41;;;24.43;43.09
80294;BME280;69594;43.516;1.498;2023-04-24T09:55:56;99873.75;;;23.80;44.33
80294;BME280;69594;43.516;1.498;2023-04-24T09:58:28;99866.75;;;23.79;44.04
80294;BME280;69594;43.516;1.498;2023-04-24T10:00:55;99869.28;;;23.57;43.89
80294;BME280;69594;43.516;1.498;2023-04-24T10:03:25;99865.53;;;23.58;42.86
80294;BME280;69594;43.516;1.498;2023-04-24T10:05:52;99871.69;;;23.23;44.53
80294;BME280;69594;43.516;1.498;2023-04-24T10:08:20;99872.75;;;22.58;45.14
80294;BME280;69594;43.516;1.498;2023-04-24T10:10:46;99880.91;;;22.03;46.45
80294;BME280;69594;43.516;1.498;2023-04-24T10:13:13;99875.22;;;21.81;46.91
80294;BME280;69594;43.516;1.498;2023-04-24T10:15:41;99875.34;;;22.04;46.50
80294;BME280;69594;43.516;1.498;2023-04-24T10:18:08;99878.16;;;22.39;45.62
80294;BME280;69594;43.516;1.498;2023-04-24T10:20:35;99873.19;;;22.55;45.81
80294;BME280;69594;43.516;1.498;2023-04-24T10:23:01;99872.84;;;22.93;45.46
80294;BME280;69594;43.516;1.498;2023-04-24T10:25:31;99869.97;;;23.29;45.20
80294;BME280;69594;43.516;1.498;2023-04-24T10:27:57;99869.91;;;23.87;43.84
80294;BME280;69594;43.516;1.498;2023-04-24T10:30:26;99863.94;;;24.25;43.46
80294;BME280;69594;43.516;1.498;2023-04-24T10:32:52;99860.22;;;24.54;42.77
80294;BME280;69594;43.516;1.498;2023-04-24T10:35:24;99849.41;;;24.83;42.80
80294;BME280;69594;43.516;1.498;2023-04-24T10:37:57;99847.72;;;24.93;40.58
80294;BME280;69594;43.516;1.498;2023-04-24T10:40:31;99853.22;;;24.70;40.76
80294;BME280;69594;43.516;1.498;2023-04-24T10:42:57;99844.75;;;24.78;42.50
80294;BME280;69594;43.516;1.498;2023-04-24T10:45:23;99846.75;;;25.00;41.52
80294;BME280;69594;43.516;1.498;2023-04-24T10:48:02;99847.22;;;24.80;39.95
80294;BME280;69594;43.516;1.498;2023-04-24T10:50:51;99843.47;;;25.14;39.25
80294;BME280;69594;43.516;1.498;2023-04-24T10:55:46;99834.66;;;25.19;39.59
80294;BME280;69594;43.516;1.498;2023-04-24T10:58:13;99841.22;;;24.89;41.10
80294;BME280;69594;43.516;1.498;2023-04-24T11:00:40;99852.81;;;24.45;41.65
80294;BME280;69594;43.516;1.498;2023-04-24T11:03:24;99847.03;;;23.96;41.44
80294;BME280;69594;43.516;1.498;2023-04-24T11:05:58;99845.25;;;24.59;41.19
80294;BME280;69594;43.516;1.498;2023-04-24T11:08:51;99848.94;;;24.24;40.20
80294;BME280;69594;43.516;1.498;2023-04-24T11:11:18;99853.72;;;24.10;41.65
80294;BME280;69594;43.516;1.498;2023-04-24T11:16:26;99853.44;;;23.09;42.39
80294;BME280;69594;43.516;1.498;2023-04-24T11:19:18;99857.13;;;22.96;42.55
80294;BME280;69594;43.516;1.498;2023-04-24T11:24:24;99858.75;;;22.74;42.96
80294;BME280;69594;43.516;1.498;2023-04-24T11:29:46;99844.03;;;22.95;42.20
80294;BME280;69594;43.516;1.498;2023-04-24T11:32:26;99838.44;;;23.08;40.98
80294;BME280;69594;43.516;1.498;2023-04-24T11:34:55;99839.59;;;23.35;41.82
80294;BME280;69594;43.516;1.498;2023-04-24T11:37:22;99829.47;;;23.25;42.46
80294;BME280;69594;43.516;1.498;2023-04-24T11:39:54;99825.81;;;23.43;41.79
80294;BME280;69594;43.516;1.498;2023-04-24T11:42:21;99824.88;;;23.73;41.96
80294;BME280;69594;43.516;1.498;2023-04-24T11:44:47;99821.84;;;24.09;41.18
80294;BME280;69594;43.516;1.498;2023-04-24T11:47:14;99821.66;;;24.15;41.42
80294;BME280;69594;43.516;1.498;2023-04-24T11:49:39;99822.44;;;23.99;41.38
80294;BME280;69594;43.516;1.498;2023-04-24T11:52:05;99823.44;;;23.82;42.04
80294;BME280;69594;43.516;1.498;2023-04-24T11:54:31;99821.47;;;23.77;42.08
80294;BME280;69594;43.516;1.498;2023-04-24T11:56:57;99819.41;;;23.67;41.74
80294;BME280;69594;43.516;1.498;2023-04-24T11:59:22;99815.94;;;23.95;41.75
80294;BME280;69594;43.516;1.498;2023-04-24T12:01:48;99815.63;;;24.37;40.82
80294;BME280;69594;43.516;1.498;2023-04-24T12:04:17;99813.06;;;24.13;40.55
80294;BME280;69594;43.516;1.498;2023-04-24T12:07:02;99821.81;;;24.37;39.61
80294;BME280;69594;43.516;1.498;2023-04-24T12:09:28;99818.28;;;24.65;40.56
80294;BME280;69594;43.516;1.498;2023-04-24T12:11:56;99817.75;;;24.51;40.16
80294;BME280;69594;43.516;1.498;2023-04-24T12:14:22;99828.09;;;24.43;41.35
80294;BME280;69594;43.516;1.498;2023-04-24T12:16:52;99816.91;;;24.18;41.22
80294;BME280;69594;43.516;1.498;2023-04-24T12:19:21;99814.66;;;24.14;41.48
80294;BME280;69594;43.516;1.498;2023-04-24T12:22:03;99809.66;;;23.50;41.25
80294;BME280;69594;43.516;1.498;2023-04-24T12:24:30;99807.72;;;23.73;42.05
80294;BME280;69594;43.516;1.498;2023-04-24T12:26:56;99802.06;;;23.98;41.56
80294;BME280;69594;43.516;1.498;2023-04-24T12:29:23;99800.38;;;24.37;41.27
80294;BME280;69594;43.516;1.498;2023-04-24T12:31:50;99799.72;;;24.47;41.22
80294;BME280;69594;43.516;1.498;2023-04-24T12:34:25;99792.91;;;24.56;39.50
80294;BME280;69594;43.516;1.498;2023-04-24T12:36:51;99792.19;;;24.44;41.15
80294;BME280;69594;43.516;1.498;2023-04-24T12:39:22;99799.97;;;24.62;39.83
80294;BME280;69594;43.516;1.498;2023-04-24T12:41:56;99796.47;;;25.12;39.47
80294;BME280;69594;43.516;1.498;2023-04-24T12:44:34;99798.03;;;24.12;41.14
80294;BME280;69594;43.516;1.498;2023-04-24T12:47:01;99801.50;;;24.41;41.47
80294;BME280;69594;43.516;1.498;2023-04-24T12:49:27;99797.28;;;24.62;40.99
80294;BME280;69594;43.516;1.498;2023-04-24T12:51:53;99796.63;;;24.22;41.41
80294;BME280;69594;43.516;1.498;2023-04-24T12:54:19;99796.88;;;23.52;42.55
80294;BME280;69594;43.516;1.498;2023-04-24T12:56:44;99798.59;;;24.14;41.53
80294;BME280;69594;43.516;1.498;2023-04-24T12:59:10;99796.38;;;23.66;43.00
80294;BME280;69594;43.516;1.498;2023-04-24T13:01:35;99800.06;;;23.77;42.57
80294;BME280;69594;43.516;1.498;2023-04-24T13:04:00;99788.13;;;23.56;42.96
80294;BME280;69594;43.516;1.498;2023-04-24T13:06:27;99784.81;;;23.14;43.83
80294;BME280;69594;43.516;1.498;2023-04-24T13:08:53;99773.88;;;22.93;43.90